Time;durP1;ratioP1;P1;durP2;ratioP2;P2;SDS_P1;SDS_P2;PMS_P1;PMS_P2;Temp;Humidity;BMP_temperature;BMP_pressure;BME280_temperature;BME280_humidity;BME280_pressure;Samples;Min_cycle;Max_cycle;Signal;HPM_P1;HPM_P2
2022/06/07 06:44:47;;;;;;;4.05;1.73;;;14.50;99.90;;;;;;5090808;28;20548;-73
2022/06/07 06:47:13;;;;;;;2.75;2.15;;;14.60;99.90;;;;;;5090750;28;20198;-74
2022/06/07 06:49:41;;;;;;;2.17;1.88;;;15.10;99.90;;;;;;5089407;28;20176;-75
2022/06/07 06:52:07;;;;;;;8.82;3.38;;;14.80;99.90;;;;;;5090731;28;20213;-74
2022/06/07 06:54:34;;;;;;;2.97;1.80;;;15.10;99.90;;;;;;5090761;28;20164;-75
2022/06/07 06:57:00;;;;;;;4.30;2.17;;;15.20;99.90;;;;;;5090664;28;20197;-75
2022/06/07 06:59:26;;;;;;;1.90;1.80;;;15.40;99.90;;;;;;5089350;28;20604;-74
2022/06/07 07:01:51;;;;;;;3.10;2.10;;;15.50;99.90;;;;;;5090201;28;20211;-75
2022/06/07 07:04:19;;;;;;;2.30;1.65;;;15.50;99.90;;;;;;5090413;28;20207;-76
2022/06/07 07:06:46;;;;;;;2.80;1.83;;;15.50;99.90;;;;;;5090402;28;20168;-75
2022/06/07 07:09:13;;;;;;;5.63;2.10;;;15.60;99.90;;;;;;5089108;28;20164;-76
2022/06/07 07:11:40;;;;;;;4.95;1.92;;;15.50;99.90;;;;;;5088917;28;20544;-74
2022/06/07 07:14:08;;;;;;;1.63;1.52;;;15.60;99.90;;;;;;5088648;28;20171;-79
2022/06/07 07:16:36;;;;;;;1.50;1.40;;;15.60;99.90;;;;;;5090200;28;20172;-72
2022/06/07 07:19:04;;;;;;;1.75;1.65;;;15.70;99.90;;;;;;5090213;28;20254;-72
2022/06/07 07:21:35;;;;;;;6.45;2.10;;;15.70;99.90;;;;;;5090181;28;20164;-72
2022/06/07 07:24:03;;;;;;;2.47;1.80;;;15.70;99.90;;;;;;5090022;28;20218;-72
2022/06/07 07:26:30;;;;;;;2.22;1.70;;;15.70;99.90;;;;;;5090125;28;20644;-73
2022/06/07 07:28:56;;;;;;;4.07;1.92;;;15.80;99.90;;;;;;5089958;28;20294;-74
2022/06/07 07:31:30;;;;;;;1.50;1.40;;;15.80;99.90;;;;;;5089999;28;20209;-71
2022/06/07 07:33:56;;;;;;;3.08;1.90;;;15.90;99.90;;;;;;5088683;28;20572;-72
2022/06/07 07:36:21;;;;;;;1.75;1.65;;;16.10;99.90;;;;;;5089881;28;20179;-72
2022/06/07 07:38:47;;;;;;;1.90;1.80;;;16.20;99.90;;;;;;5089659;28;20531;-72
2022/06/07 07:41:20;;;;;;;7.35;2.08;;;16.40;99.90;;;;;;5089651;28;20251;-71
2022/06/07 07:43:47;;;;;;;1.70;1.60;;;16.40;99.90;;;;;;5089604;28;20318;-72
2022/06/07 07:46:13;;;;;;;2.10;1.90;;;16.30;99.90;;;;;;5089763;28;20576;-72
2022/06/07 07:48:40;;;;;;;3.47;2.03;;;16.30;99.90;;;;;;5089670;28;20164;-71
2022/06/07 07:51:08;;;;;;;2.03;1.77;;;16.30;99.90;;;;;;5089571;28;20633;-74
2022/06/07 07:53:34;;;;;;;2.47;2.30;;;16.30;99.90;;;;;;5089615;28;20625;-73
2022/06/07 07:56:00;;;;;;;2.05;1.80;;;16.30;99.90;;;;;;5076955;28;20234;-74
2022/06/07 07:58:25;;;;;;;3.83;1.80;;;16.40;99.90;;;;;;5075997;28;20176;-74
2022/06/07 08:00:51;;;;;;;4.60;2.00;;;16.60;99.90;;;;;;5074654;28;20206;-74
2022/06/07 08:03:18;;;;;;;3.30;2.13;;;16.60;99.90;;;;;;5075945;28;20722;-74
2022/06/07 08:05:45;;;;;;;3.13;1.95;;;16.60;99.90;;;;;;5076007;28;20157;-73
2022/06/07 08:08:11;;;;;;;2.38;1.95;;;16.60;99.90;;;;;;5075625;28;20216;-72
2022/06/07 08:10:39;;;;;;;5.53;2.15;;;16.50;99.90;;;;;;5075676;28;20175;-72
2022/06/07 08:13:06;;;;;;;2.90;1.98;;;16.40;99.90;;;;;;5075776;28;20168;-71
2022/06/07 08:15:33;;;;;;;1.60;1.50;;;16.40;99.90;;;;;;5075691;28;20190;-71
2022/06/07 08:18:02;;;;;;;1.90;1.50;;;16.30;99.90;;;;;;5075663;28;20165;-71
2022/06/07 08:20:29;;;;;;;3.03;1.98;;;16.30;99.90;;;;;;5075576;28;20314;-71
2022/06/07 08:22:55;;;;;;;2.10;1.60;;;16.30;99.90;;;;;;5075546;28;20184;-72
2022/06/07 08:25:21;;;;;;;1.80;1.42;;;16.40;99.90;;;;;;5074214;28;20533;-71
2022/06/07 08:27:47;;;;;;;7.68;2.05;;;16.60;99.90;;;;;;5075392;28;20168;-72
2022/06/07 08:30:13;;;;;;;3.17;1.95;;;16.70;99.90;;;;;;5075351;28;20169;-72
2022/06/07 08:32:39;;;;;;;2.63;1.63;;;16.80;99.90;;;;;;5075309;28;20259;-73
2022/06/07 08:37:49;;;;;;;1.80;1.70;;;17.00;99.90;;;;;;5075473;28;20259;-74
2022/06/07 08:40:26;;;;;;;1.92;1.60;;;17.10;99.90;;;;;;5075203;28;20256;-74
2022/06/07 08:42:55;;;;;;;4.82;2.00;;;17.10;99.90;;;;;;5074886;28;20223;-75
2022/06/07 08:45:30;;;;;;;4.45;1.35;;;17.10;99.90;;;;;;5073842;28;20604;-75
2022/06/07 08:48:07;;;;;;;4.25;1.55;;;17.20;99.90;;;;;;5075111;28;20175;-72
2022/06/07 08:50:41;;;;;;;2.42;1.85;;;17.00;99.90;;;;;;5073475;28;20529;-73
2022/06/07 08:53:16;;;;;;;1.73;1.50;;;16.70;99.90;;;;;;5074948;28;20709;-77
2022/06/07 08:56:00;;;;;;;2.40;1.65;;;16.70;99.90;;;;;;5074886;28;20230;-74
2022/06/07 08:58:49;;;;;;;5.35;1.60;;;16.70;99.90;;;;;;5074550;28;20177;-74
2022/06/07 09:01:32;;;;;;;6.93;1.75;;;16.70;99.90;;;;;;5073546;28;20179;-74
2022/06/07 09:04:22;;;;;;;2.90;1.35;;;16.90;99.90;;;;;;5074734;28;20196;-75
2022/06/07 09:06:57;;;;;;;3.70;1.80;;;17.00;99.90;;;;;;5071683;28;20192;-74
2022/06/07 09:12:09;;;;;;;3.92;1.70;;;17.00;99.90;;;;;;5074439;28;20570;-74
2022/06/07 09:12:16;;;;;;;4.90;1.80;;;17.00;99.90;;;;;;5074360;28;20180;-75
2022/06/07 09:14:59;;;;;;;2.15;1.90;;;17.10;99.90;;;;;;5074591;28;20172;-76
2022/06/07 09:17:33;;;;;;;5.53;2.03;;;17.30;99.90;;;;;;5074387;28;20164;-75
2022/06/07 09:19:59;;;;;;;2.88;1.90;;;17.40;99.90;;;;;;5074320;28;20160;-74
2022/06/07 09:22:37;;;;;;;2.22;1.75;;;17.50;99.90;;;;;;5074255;28;20172;-75
2022/06/07 09:25:16;;;;;;;1.50;1.40;;;17.60;99.90;;;;;;5074366;28;20225;-73
2022/06/07 09:27:45;;;;;;;1.95;1.60;;;17.60;99.90;;;;;;5074204;28;20160;-75
2022/06/07 09:30:17;;;;;;;5.25;1.70;;;17.70;99.90;;;;;;5073138;28;20169;-75
2022/06/07 09:32:49;;;;;;;3.30;1.65;;;17.70;99.90;;;;;;5074070;28;20167;-74
2022/06/07 09:35:20;;;;;;;2.05;1.40;;;17.80;99.90;;;;;;5074197;28;20168;-74
2022/06/07 09:38:14;;;;;;;6.60;2.17;;;17.90;99.90;;;;;;5072769;28;20656;-74
2022/06/07 09:40:48;;;;;;;4.22;1.65;;;18.00;99.90;;;;;;5072714;28;20175;-73
2022/06/07 09:43:18;;;;;;;3.25;1.77;;;18.20;99.90;;;;;;5073932;28;20224;-73
2022/06/07 09:45:44;;;;;;;9.38;2.70;;;18.20;99.90;;;;;;5073878;28;20196;-75
2022/06/07 09:48:31;;;;;;;4.43;3.10;;;18.40;99.90;;;;;;5073843;28;20594;-72
2022/06/07 09:51:21;;;;;;;3.03;1.58;;;18.50;99.90;;;;;;5073880;28;20164;-71
2022/06/07 09:53:56;;;;;;;1.33;1.33;;;18.60;99.90;;;;;;5073727;28;20235;-72
2022/06/07 09:56:56;;;;;;;4.03;1.67;;;18.70;99.90;;;;;;5073821;28;20217;-72
2022/06/07 09:59:51;;;;;;;4.10;1.75;;;18.90;99.90;;;;;;5073718;28;20190;-71
2022/06/07 10:02:58;;;;;;;4.43;1.30;;;18.90;99.90;;;;;;5072470;28;20229;-71
2022/06/07 10:05:40;;;;;;;3.40;1.55;;;18.80;99.90;;;;;;5072541;28;20198;-71
2022/06/07 10:08:21;;;;;;;3.80;1.60;;;18.70;99.90;;;;;;5073514;28;20275;-71
2022/06/07 10:10:57;;;;;;;2.40;1.45;;;18.50;99.90;;;;;;5073580;28;20164;-71
2022/06/07 10:13:34;;;;;;;2.28;1.55;;;18.20;99.90;;;;;;5073552;28;20246;-71
2022/06/07 10:16:15;;;;;;;4.97;1.95;;;18.20;99.90;;;;;;5073495;28;20167;-71
2022/06/07 10:18:58;;;;;;;3.47;1.80;;;18.30;99.90;;;;;;5073251;28;20212;-71
2022/06/07 10:21:55;;;;;;;3.05;1.60;;;18.50;99.90;;;;;;5073480;28;20206;-71
2022/06/07 10:24:55;;;;;;;4.18;1.80;;;18.50;99.90;;;;;;5073258;28;20196;-71
2022/06/07 10:27:51;;;;;;;1.42;1.42;;;18.50;99.90;;;;;;5073335;28;20247;-71
2022/06/07 10:30:29;;;;;;;1.63;1.52;;;18.50;99.90;;;;;;5073319;28;20225;-71
2022/06/07 10:33:16;;;;;;;5.28;1.85;;;18.60;99.90;;;;;;5072132;28;20535;-71
2022/06/07 10:35:46;;;;;;;1.88;1.40;;;18.60;99.90;;;;;;5073308;28;20508;-71
2022/06/07 10:38:39;;;;;;;2.47;1.13;;;18.80;99.90;;;;;;5072098;28;20176;-74
2022/06/07 10:41:29;;;;;;;2.28;2.08;;;18.90;99.90;;;;;;5073353;28;20195;-75
2022/06/07 10:44:33;;;;;;;2.13;1.45;;;18.90;99.90;;;;;;5072734;28;20220;-75
2022/06/07 10:47:28;;;;;;;1.42;1.30;;;18.90;99.90;;;;;;5071871;28;20172;-75
2022/06/07 10:50:19;;;;;;;2.15;1.80;;;18.90;99.90;;;;;;5073151;28;20156;-75
2022/06/07 10:53:08;;;;;;;4.50;1.80;;;19.00;99.90;;;;;;5073100;28;20213;-75
2022/06/07 10:55:52;;;;;;;2.03;1.83;;;19.10;99.90;;;;;;5073022;28;20621;-74
2022/06/07 10:58:48;;;;;;;1.38;1.33;;;19.20;99.90;;;;;;5073006;28;20625;-75
2022/06/07 11:01:47;;;;;;;1.63;1.52;;;19.30;99.90;;;;;;5073032;28;20225;-72
2022/06/07 11:10:28;;;;;;;1.48;1.38;;;19.50;99.90;;;;;;5072926;28;20241;-73
2022/06/07 11:12:59;;;;;;;1.55;1.45;;;19.50;99.90;;;;;;5071783;28;20233;-73
2022/06/07 11:15:36;;;;;;;7.47;1.90;;;19.50;99.90;;;;;;5072863;28;20250;-72
2022/06/07 11:18:21;;;;;;;7.35;2.13;;;19.60;99.90;;;;;;5071591;28;20183;-72
2022/06/07 11:21:03;;;;;;;1.92;1.83;;;19.80;99.90;;;;;;5072776;28;20175;-72
2022/06/07 11:23:36;;;;;;;2.70;1.40;;;20.00;99.90;;;;;;5072728;28;20187;-73
2022/06/07 11:26:09;;;;;;;2.15;1.52;;;20.10;99.90;;;;;;5072784;28;20160;-73
2022/06/07 11:28:48;;;;;;;1.80;1.50;;;20.20;99.90;;;;;;5071504;28;20199;-74
2022/06/07 11:31:30;;;;;;;3.35;1.48;;;20.40;99.90;;;;;;5074631;28;20267;-74
2022/06/07 11:34:05;;;;;;;4.30;1.60;;;20.50;99.90;;;;;;5076470;28;20243;-73
2022/06/07 11:36:40;;;;;;;4.10;1.80;;;20.50;99.90;;;;;;5075268;28;20201;-72
2022/06/07 11:39:30;;;;;;;1.60;1.55;;;20.30;99.90;;;;;;5075306;28;20707;-71
2022/06/07 11:42:20;;;;;;;2.58;1.48;;;20.00;99.90;;;;;;5076413;28;20178;-73
2022/06/07 11:45:18;;;;;;;3.70;1.50;;;19.80;99.90;;;;;;5075989;28;20246;-73
2022/06/07 11:47:49;;;;;;;2.55;1.70;;;19.70;99.90;;;;;;5076211;28;20187;-74
2022/06/07 11:50:32;;;;;;;2.38;2.17;;;19.40;99.90;;;;;;5076402;28;20156;-73
2022/06/07 11:53:24;;;;;;;2.40;1.60;;;19.10;99.90;;;;;;5076163;28;20171;-78
2022/06/07 11:56:11;;;;;;;2.13;1.77;;;19.00;99.90;;;;;;5074857;28;20172;-73
2022/06/07 11:59:20;;;;;;;2.17;1.73;;;18.90;99.90;;;;;;5076036;28;20250;-74
2022/06/07 12:02:20;;;;;;;2.45;1.83;;;18.90;99.90;;;;;;5075234;28;20187;-75
2022/06/07 12:04:52;;;;;;;1.67;1.58;;;18.90;99.90;;;;;;5075883;28;20199;-74
2022/06/07 12:07:59;;;;;;;5.75;1.60;;;19.00;99.90;;;;;;5074713;28;20203;-73
2022/06/07 12:10:31;;;;;;;1.50;1.40;;;19.10;99.90;;;;;;5075226;28;20187;-75
2022/06/07 12:13:07;;;;;;;1.80;1.70;;;19.10;99.90;;;;;;5074698;28;20229;-74
2022/06/07 12:15:59;;;;;;;1.77;1.67;;;19.10;99.90;;;;;;5075770;28;20202;-74
2022/06/07 12:18:27;;;;;;;1.48;1.48;;;18.80;99.90;;;;;;5074110;28;20211;-74
2022/06/07 12:21:08;;;;;;;2.85;2.03;;;18.80;99.90;;;;;;5075593;28;20531;-75
2022/06/07 12:23:41;;;;;;;2.03;1.90;;;18.80;99.90;;;;;;5075535;28;20217;-75
2022/06/07 12:26:20;;;;;;;2.40;2.20;;;18.70;99.90;;;;;;5075488;28;20164;-75
2022/06/07 12:28:51;;;;;;;2.38;2.03;;;18.50;99.90;;;;;;5075403;28;20210;-75
2022/06/07 12:31:45;;;;;;;3.40;2.20;;;18.20;99.90;;;;;;5074084;28;20168;-74
2022/06/07 12:34:21;;;;;;;4.50;2.35;;;17.90;99.90;;;;;;5074442;28;20184;-78
2022/06/07 12:37:05;;;;;;;4.03;2.67;;;17.60;99.90;;;;;;5075367;28;20179;-79
2022/06/07 12:39:41;;;;;;;3.08;2.80;;;17.20;99.90;;;;;;5075238;28;20210;-78
2022/06/07 12:42:14;;;;;;;2.80;2.60;;;16.90;99.90;;;;;;5075103;28;20172;-77
2022/06/07 12:44:43;;;;;;;3.10;2.90;;;16.80;99.90;;;;;;5075080;28;20227;-78
2022/06/07 12:47:31;;;;;;;6.65;3.35;;;16.60;99.90;;;;;;5075088;28;20164;-73
2022/06/07 12:49:58;;;;;;;4.07;3.22;;;16.60;99.90;;;;;;5075042;28;20638;-74
2022/06/07 12:52:26;;;;;;;3.35;3.17;;;16.70;99.90;;;;;;5074986;28;20164;-73
2022/06/07 12:54:54;;;;;;;5.43;4.00;;;16.90;99.90;;;;;;5073696;28;20199;-72
2022/06/07 12:57:25;;;;;;;6.55;3.55;;;17.20;99.90;;;;;;5074957;28;20164;-72
2022/06/07 12:59:54;;;;;;;5.85;3.70;;;17.70;99.90;;;;;;5074918;28;20543;-72
2022/06/07 13:02:25;;;;;;;7.15;4.70;;;17.80;99.90;;;;;;5074730;28;20172;-71
2022/06/07 13:04:55;;;;;;;7.70;2.80;;;18.10;99.90;;;;;;5074705;28;20198;-71
2022/06/07 13:07:24;;;;;;;2.58;2.42;;;18.20;99.90;;;;;;5073365;28;20198;-72
2022/06/07 13:10:05;;;;;;;2.97;2.70;;;18.20;99.90;;;;;;5074636;28;20175;-75
2022/06/07 13:12:36;;;;;;;4.90;3.00;;;18.30;99.90;;;;;;5074588;28;20253;-76
2022/06/07 13:15:10;;;;;;;4.28;3.05;;;18.20;99.90;;;;;;5074466;28;20190;-77
2022/06/07 13:17:38;;;;;;;4.57;3.35;;;18.20;99.90;;;;;;5074396;28;20304;-74
2022/06/07 13:20:07;;;;;;;4.93;3.70;;;18.10;99.90;;;;;;5074428;28;20167;-73
2022/06/07 13:22:39;;;;;;;5.35;3.75;;;18.00;99.90;;;;;;5074255;28;20258;-73
2022/06/07 13:25:28;;;;;;;8.35;3.65;;;17.90;99.90;;;;;;5074433;28;20172;-74
2022/06/07 13:28:18;;;;;;;3.47;3.17;;;18.00;99.90;;;;;;5074247;28;20196;-75
2022/06/07 13:30:45;;;;;;;10.18;3.75;;;18.30;99.90;;;;;;5072926;28;20696;-74
2022/06/07 13:33:27;;;;;;;4.85;3.20;;;18.50;99.90;;;;;;5072925;28;20179;-74
2022/06/07 13:36:02;;;;;;;3.38;2.95;;;18.50;99.90;;;;;;5074178;28;20626;-74
2022/06/07 13:38:36;;;;;;;9.32;3.63;;;18.50;99.90;;;;;;5074135;28;20175;-75
2022/06/07 13:41:10;;;;;;;3.35;3.17;;;18.30;99.90;;;;;;5072813;28;20190;-75
2022/06/07 13:43:51;;;;;;;9.00;3.00;;;17.90;99.90;;;;;;5074071;28;20321;-75
2022/06/07 13:46:30;;;;;;;5.32;4.05;;;17.60;99.90;;;;;;5073866;28;20187;-73
2022/06/07 13:55:12;;;;;;;10.23;4.25;;;16.90;99.90;;;;;;5073804;28;20182;-76
2022/06/07 13:57:38;;;;;;;5.10;4.30;;;16.90;99.90;;;;;;5073751;28;20203;-76
2022/06/07 14:00:07;;;;;;;6.57;4.35;;;16.80;99.90;;;;;;5073684;28;20172;-73
2022/06/07 14:02:34;;;;;;;4.80;4.43;;;16.80;99.90;;;;;;5072325;28;20172;-73
2022/06/07 14:05:00;;;;;;;6.30;4.40;;;16.80;99.90;;;;;;5072104;28;20221;-74
2022/06/07 14:07:26;;;;;;;5.03;4.55;;;16.80;99.90;;;;;;5073737;28;20188;-73
2022/06/07 14:09:52;;;;;;;6.63;4.75;;;16.90;99.90;;;;;;5073552;28;20168;-74
2022/06/07 14:12:17;;;;;;;4.25;3.95;;;17.00;99.90;;;;;;5073473;28;20173;-74
2022/06/07 14:14:43;;;;;;;4.90;4.47;;;17.10;99.90;;;;;;5073489;28;20168;-73
2022/06/07 14:17:17;;;;;;;4.82;4.47;;;17.20;99.90;;;;;;5073388;28;20174;-73
2022/06/07 14:19:49;;;;;;;5.22;4.63;;;17.20;99.90;;;;;;5073471;28;20296;-77
2022/06/07 14:22:21;;;;;;;4.93;4.63;;;17.20;99.90;;;;;;5072166;28;20172;-76
2022/06/07 14:24:48;;;;;;;7.45;5.18;;;17.10;99.90;;;;;;5073279;28;20188;-78
2022/06/07 14:27:18;;;;;;;5.72;5.32;;;17.00;99.90;;;;;;5073272;28;20171;-81
2022/06/07 14:29:44;;;;;;;7.20;4.85;;;17.00;99.90;;;;;;5071936;28;20629;-81
2022/06/07 14:32:34;;;;;;;5.72;4.90;;;17.00;99.90;;;;;;5073296;28;20180;-80
2022/06/07 14:35:00;;;;;;;5.40;4.90;;;17.10;99.90;;;;;;5072757;28;20226;-84
2022/06/07 14:37:28;;;;;;;6.13;5.70;;;17.10;99.90;;;;;;5073207;28;20164;-85
2022/06/07 14:39:54;;;;;;;5.43;4.95;;;17.40;99.90;;;;;;5073160;28;20159;-81
2022/06/07 14:42:20;;;;;;;6.65;5.32;;;17.80;99.90;;;;;;5073052;28;20182;-81
2022/06/07 14:44:47;;;;;;;6.35;4.95;;;18.10;99.90;;;;;;5071809;28;20307;-78
2022/06/07 14:47:23;;;;;;;5.00;4.60;;;18.00;99.90;;;;;;5072884;28;20175;-78
2022/06/07 14:49:55;;;;;;;5.55;5.00;;;18.00;99.90;;;;;;5073202;28;20239;-77
2022/06/07 14:52:21;;;;;;;4.43;4.03;;;17.80;99.90;;;;;;5073123;28;20164;-78
2022/06/07 14:54:47;;;;;;;4.70;4.30;;;17.60;99.90;;;;;;5073098;28;20203;-76
2022/06/07 14:57:24;;;;;;;7.00;4.40;;;17.50;99.90;;;;;;5073086;28;20202;-77
2022/06/07 14:59:52;;;;;;;5.10;4.70;;;17.30;99.90;;;;;;5073120;28;20175;-77
2022/06/07 15:02:32;;;;;;;4.90;4.50;;;17.10;99.90;;;;;;5071856;28;20237;-76
2022/06/07 15:05:13;;;;;;;6.15;5.07;;;17.10;99.90;;;;;;5074136;28;20665;-76
2022/06/07 15:07:54;;;;;;;5.47;5.18;;;17.00;99.90;;;;;;5076897;28;20287;-76
2022/06/07 15:10:26;;;;;;;5.28;4.95;;;16.90;99.90;;;;;;5077055;28;20176;-76
2022/06/07 15:12:53;;;;;;;5.60;5.10;;;16.80;99.90;;;;;;5076949;28;20247;-77
2022/06/07 15:15:19;;;;;;;5.63;5.15;;;16.90;99.90;;;;;;5076900;28;20243;-77
2022/06/07 15:17:53;;;;;;;5.68;5.10;;;16.90;99.90;;;;;;5076813;28;20251;-76
2022/06/07 15:20:26;;;;;;;6.05;5.63;;;16.80;99.90;;;;;;5076849;28;20172;-76
2022/06/07 15:22:53;;;;;;;5.40;5.10;;;16.90;99.90;;;;;;5076702;28;20176;-77
2022/06/07 15:25:22;;;;;;;6.70;6.13;;;16.90;99.90;;;;;;5076720;28;20160;-77
2022/06/07 15:27:48;;;;;;;5.75;5.25;;;17.00;99.90;;;;;;5076459;28;20255;-77
2022/06/07 15:30:15;;;;;;;6.47;5.72;;;17.20;99.90;;;;;;5075284;28;20716;-77
2022/06/07 15:32:41;;;;;;;5.53;5.07;;;17.40;99.90;;;;;;5076499;28;20171;-77
2022/06/07 15:35:29;;;;;;;5.70;5.40;;;17.60;99.90;;;;;;5076465;28;20164;-77
2022/06/07 15:37:55;;;;;;;6.20;5.75;;;17.70;99.90;;;;;;5076458;28;20187;-77
2022/06/07 15:40:24;;;;;;;7.88;6.00;;;17.70;99.90;;;;;;5076361;28;20251;-77
2022/06/07 15:42:54;;;;;;;6.55;6.10;;;17.90;99.90;;;;;;5076037;28;20216;-77
2022/06/07 15:45:39;;;;;;;6.47;5.95;;;18.10;99.90;;;;;;5076342;28;20228;-77
2022/06/07 15:48:16;;;;;;;6.15;5.68;;;18.40;99.90;;;;;;5076226;28;20167;-78
2022/06/07 15:50:51;;;;;;;6.60;6.20;;;18.50;99.90;;;;;;5076268;28;20160;-78
2022/06/07 15:53:19;;;;;;;5.95;5.55;;;18.60;99.90;;;;;;5074826;28;20178;-78
2022/06/07 15:55:46;;;;;;;11.23;6.38;;;18.50;99.90;;;;;;5076175;28;20206;-78
2022/06/07 16:00:57;;;;;;;8.95;6.70;;;18.20;99.90;;;;;;5076264;28;20668;-78
2022/06/07 16:03:24;;;;;;;9.00;8.25;;;18.10;99.90;;;;;;5075885;28;20203;-78
2022/06/07 16:05:50;;;;;;;8.48;7.80;;;18.00;99.90;;;;;;5075898;28;20251;-77
2022/06/07 16:08:17;;;;;;;8.35;7.78;;;17.90;99.90;;;;;;5075891;28;20224;-77
2022/06/07 16:10:43;;;;;;;8.90;8.20;;;17.90;99.90;;;;;;5075848;28;20574;-76
2022/06/07 16:13:10;;;;;;;10.38;9.57;;;17.80;99.90;;;;;;5075787;28;20373;-75
2022/06/07 16:15:37;;;;;;;10.65;9.63;;;17.80;99.90;;;;;;5075268;28;20579;-76
2022/06/07 16:18:04;;;;;;;10.27;9.48;;;17.70;99.90;;;;;;5075688;28;20172;-76
2022/06/07 16:20:32;;;;;;;10.50;9.45;;;17.80;99.90;;;;;;5075666;28;20176;-76
2022/06/07 16:22:59;;;;;;;9.68;8.95;;;17.80;99.90;;;;;;5075452;28;20198;-76
2022/06/07 16:25:24;;;;;;;10.27;9.60;;;17.90;99.90;;;;;;5075640;28;20219;-76
2022/06/07 16:33:19;;;;;;;7.25;6.85;;;18.80;99.90;;;;;;5075465;28;20175;-77
2022/06/07 16:35:56;;;;;;;6.65;6.25;;;19.10;99.90;;;;;;5075402;28;20171;-77
2022/06/07 16:38:27;;;;;;;6.38;5.95;;;19.20;99.90;;;;;;5075406;28;20271;-77
2022/06/07 16:40:52;;;;;;;5.88;5.50;;;19.30;99.90;;;;;;5075321;28;20178;-77
2022/06/07 16:46:04;;;;;;;5.70;5.40;;;19.50;99.90;;;;;;5075533;28;20524;-77
2022/06/07 16:48:31;;;;;;;4.85;4.60;;;19.80;99.90;;;;;;5073819;28;20203;-77
2022/06/07 16:50:56;;;;;;;4.90;4.70;;;19.80;99.90;;;;;;5075172;28;20689;-77
2022/06/07 16:53:22;;;;;;;4.32;4.00;;;19.70;99.90;;;;;;5075064;28;20171;-77
2022/06/07 16:55:50;;;;;;;3.85;3.72;;;19.70;99.90;;;;;;5073742;28;20263;-77
2022/06/07 16:58:15;;;;;;;4.80;4.50;;;19.70;99.90;;;;;;5074943;28;20618;-77
2022/06/07 17:00:41;;;;;;;4.88;4.68;;;19.60;99.90;;;;;;5073539;28;20262;-77
2022/06/07 17:03:07;;;;;;;4.47;4.28;;;19.50;99.90;;;;;;5074771;28;20557;-77
2022/06/07 17:05:36;;;;;;;4.35;4.15;;;19.30;99.90;;;;;;5074756;28;20542;-77
2022/06/07 17:08:03;;;;;;;4.45;4.10;;;19.20;99.90;;;;;;5074645;28;20184;-77
2022/06/07 17:10:29;;;;;;;4.75;4.55;;;19.00;99.90;;;;;;5074616;28;20164;-77
2022/06/07 17:12:57;;;;;;;4.10;3.90;;;18.90;99.90;;;;;;5074497;28;20179;-77
2022/06/07 17:15:23;;;;;;;3.95;3.75;;;18.80;99.90;;;;;;5074637;28;20567;-76
2022/06/07 17:17:49;;;;;;;3.63;3.42;;;18.70;99.90;;;;;;5074654;28;20251;-78
2022/06/07 17:20:14;;;;;;;3.15;3.05;;;18.70;99.90;;;;;;5074514;28;20203;-76
2022/06/07 17:22:40;;;;;;;3.28;3.08;;;18.70;99.90;;;;;;5074380;28;20164;-77
2022/06/07 17:25:06;;;;;;;3.50;3.25;;;18.80;99.90;;;;;;5074285;28;20194;-77
2022/06/07 17:27:32;;;;;;;3.38;3.17;;;18.90;99.90;;;;;;5073692;28;20248;-77
2022/06/07 17:29:58;;;;;;;3.60;3.40;;;18.90;99.90;;;;;;5074296;28;20164;-77
2022/06/07 17:32:24;;;;;;;4.18;3.90;;;18.80;99.90;;;;;;5074215;28;20164;-77
2022/06/07 17:34:49;;;;;;;5.07;4.50;;;18.70;99.90;;;;;;5074215;28;20182;-77
2022/06/07 17:37:15;;;;;;;4.50;4.13;;;18.60;99.90;;;;;;5074083;28;20169;-78
2022/06/07 17:39:41;;;;;;;4.22;4.03;;;18.50;99.90;;;;;;5074111;28;20628;-77
2022/06/07 17:42:07;;;;;;;4.90;4.30;;;18.40;99.90;;;;;;5073722;28;20164;-77
2022/06/07 17:44:33;;;;;;;5.10;4.63;;;18.30;99.90;;;;;;5072527;28;20227;-77
2022/06/07 17:46:59;;;;;;;6.78;5.85;;;18.20;99.90;;;;;;5073864;28;20163;-77
2022/06/07 17:49:25;;;;;;;6.30;5.70;;;18.20;99.90;;;;;;5073965;28;20617;-77
2022/06/07 17:51:50;;;;;;;6.75;6.22;;;18.20;99.90;;;;;;5073785;28;20172;-77
2022/06/07 17:54:16;;;;;;;6.22;5.82;;;18.20;99.90;;;;;;5073902;28;20174;-77
2022/06/07 17:56:41;;;;;;;6.13;5.72;;;18.20;99.90;;;;;;5073765;28;20171;-77
2022/06/07 17:59:07;;;;;;;6.03;5.55;;;18.10;99.90;;;;;;5073806;28;20246;-77
2022/06/07 18:01:33;;;;;;;6.72;6.13;;;18.10;99.90;;;;;;5073718;28;20179;-77
2022/06/07 18:03:59;;;;;;;7.13;6.65;;;18.10;99.90;;;;;;5073645;28;20245;-77
2022/06/07 18:06:24;;;;;;;7.38;6.68;;;18.00;99.90;;;;;;5072184;28;20566;-77
2022/06/07 18:08:50;;;;;;;6.20;5.90;;;17.90;99.90;;;;;;5073659;28;20617;-77
2022/06/07 18:11:24;;;;;;;9.15;6.38;;;17.90;99.90;;;;;;5072293;28;20168;-77
2022/06/07 18:13:51;;;;;;;6.07;5.68;;;17.90;99.90;;;;;;5072384;28;20210;-77
2022/06/07 18:16:17;;;;;;;6.15;5.68;;;17.90;99.90;;;;;;5073840;28;20164;-76
2022/06/07 18:18:42;;;;;;;6.88;6.38;;;17.80;99.90;;;;;;5073388;28;20170;-77
2022/06/07 18:21:13;;;;;;;6.45;6.00;;;17.80;99.90;;;;;;5073356;28;20172;-77
2022/06/07 18:23:39;;;;;;;6.72;6.13;;;17.80;99.90;;;;;;5073350;28;20244;-77
2022/06/07 18:26:06;;;;;;;6.90;6.47;;;17.70;99.90;;;;;;5073407;28;20168;-76
2022/06/07 18:28:32;;;;;;;5.60;5.30;;;17.70;99.90;;;;;;5073345;28;20167;-77
2022/06/07 18:30:59;;;;;;;6.40;5.85;;;17.60;99.90;;;;;;5073354;28;20176;-76
2022/06/07 18:33:25;;;;;;;6.07;5.70;;;17.70;99.90;;;;;;5073164;28;20171;-77
2022/06/07 18:35:51;;;;;;;6.50;5.90;;;17.60;99.90;;;;;;5073261;28;20168;-76
2022/06/07 18:38:17;;;;;;;6.57;5.90;;;17.50;99.90;;;;;;5071806;28;20168;-76
2022/06/07 18:40:47;;;;;;;6.88;6.15;;;17.40;99.90;;;;;;5073274;28;20655;-76
2022/06/07 18:43:16;;;;;;;6.88;6.30;;;17.30;99.90;;;;;;5072779;28;20224;-76
